Time;durP1;ratioP1;P1;durP2;ratioP2;P2;SDS_P1;SDS_P2;PMS_P1;PMS_P2;Temp;Humidity;BMP_temperature;BMP_pressure;BME280_temperature;BME280_humidity;BME280_pressure;Samples;Min_cycle;Max_cycle;Signal;HPM_P1;HPM_P2
2021/10/11 00:01:53;;;;;;;15.43;10.85;;;8.60;99.90;;;;;;5054383;28;20290;-73
2021/10/11 00:04:21;;;;;;;16.55;10.13;;;8.60;99.90;;;;;;5054036;28;20210;-74
2021/10/11 00:06:47;;;;;;;14.75;9.25;;;8.50;99.90;;;;;;5054462;28;20306;-74
2021/10/11 00:09:14;;;;;;;13.77;9.80;;;8.50;99.90;;;;;;5054973;28;20204;-74
2021/10/11 00:11:41;;;;;;;16.55;9.77;;;8.50;99.90;;;;;;5054063;28;20203;-73
2021/10/11 00:14:08;;;;;;;14.68;10.07;;;8.40;99.90;;;;;;5054257;28;20205;-74
2021/10/11 00:16:35;;;;;;;13.90;10.48;;;8.50;99.90;;;;;;5054042;28;20246;-74
2021/10/11 00:19:02;;;;;;;14.88;9.65;;;8.50;99.90;;;;;;5054232;28;20214;-74
2021/10/11 00:21:30;;;;;;;15.70;10.55;;;8.40;99.90;;;;;;5054045;28;20205;-73
2021/10/11 00:23:57;;;;;;;15.45;10.52;;;8.30;99.90;;;;;;5054039;28;20294;-74
2021/10/11 00:26:24;;;;;;;17.70;10.45;;;8.20;99.90;;;;;;5054107;28;20221;-74
2021/10/11 00:28:50;;;;;;;16.70;10.82;;;8.10;99.90;;;;;;5054030;28;20207;-74
2021/10/11 00:31:17;;;;;;;17.70;10.20;;;8.10;99.90;;;;;;5053896;28;20293;-73
2021/10/11 00:33:44;;;;;;;14.63;10.55;;;8.10;99.90;;;;;;5053872;28;20209;-74
2021/10/11 00:36:11;;;;;;;15.77;10.48;;;8.10;99.90;;;;;;5054261;28;20204;-74
2021/10/11 00:38:40;;;;;;;15.82;10.88;;;8.10;99.90;;;;;;5053871;28;20314;-74
2021/10/11 00:41:06;;;;;;;13.38;9.52;;;8.10;99.90;;;;;;5053670;28;20203;-74
2021/10/11 00:43:33;;;;;;;13.98;9.75;;;8.20;99.90;;;;;;5053944;28;20599;-74
2021/10/11 00:46:01;;;;;;;16.38;11.18;;;8.10;99.90;;;;;;5053771;28;20298;-74
2021/10/11 00:48:29;;;;;;;13.85;10.02;;;8.10;99.90;;;;;;5053409;28;20226;-74
2021/10/11 00:50:57;;;;;;;13.52;10.00;;;8.10;99.90;;;;;;5053448;28;20253;-74
2021/10/11 00:53:26;;;;;;;16.42;10.07;;;8.10;99.90;;;;;;5053417;28;20708;-74
2021/10/11 00:55:54;;;;;;;16.75;9.60;;;8.10;99.90;;;;;;5053619;28;20211;-74
2021/10/11 00:58:21;;;;;;;15.07;10.05;;;8.10;99.90;;;;;;5053230;28;20219;-74
2021/10/11 01:00:48;;;;;;;15.80;10.80;;;7.90;99.90;;;;;;5053469;28;20203;-74
2021/10/11 01:03:15;;;;;;;17.08;10.98;;;7.80;99.90;;;;;;5053145;28;20210;-74
2021/10/11 01:05:42;;;;;;;16.27;9.85;;;7.70;99.90;;;;;;5053497;28;20203;-74
2021/10/11 01:08:09;;;;;;;20.10;12.05;;;7.70;99.90;;;;;;5053488;28;20220;-74
2021/10/11 01:10:36;;;;;;;16.92;10.52;;;7.70;99.90;;;;;;5053481;28;20297;-74
2021/10/11 01:13:05;;;;;;;14.88;10.43;;;7.70;99.90;;;;;;5053216;28;20665;-73
2021/10/11 01:15:31;;;;;;;15.50;10.27;;;7.80;99.90;;;;;;5054821;28;20207;-73
2021/10/11 01:17:58;;;;;;;14.18;9.70;;;7.90;99.90;;;;;;5057196;28;20226;-74
2021/10/11 01:20:27;;;;;;;13.68;8.75;;;7.90;99.90;;;;;;5057574;28;20199;-74
2021/10/11 01:22:54;;;;;;;13.95;9.18;;;8.00;99.90;;;;;;5057378;28;20681;-73
2021/10/11 01:25:21;;;;;;;13.02;8.73;;;8.00;99.90;;;;;;5057370;28;20306;-74
2021/10/11 01:27:48;;;;;;;12.65;9.23;;;8.00;99.90;;;;;;5057459;28;20221;-74
2021/10/11 01:30:16;;;;;;;14.77;8.82;;;7.70;99.90;;;;;;5057422;28;20205;-74
2021/10/11 01:32:46;;;;;;;17.15;10.27;;;7.60;99.90;;;;;;5057429;28;20203;-73
2021/10/11 01:35:14;;;;;;;16.70;10.48;;;7.30;99.90;;;;;;5057326;28;20207;-74
2021/10/11 01:37:42;;;;;;;16.92;9.88;;;7.40;99.90;;;;;;5056952;28;20711;-74
2021/10/11 01:40:11;;;;;;;14.82;9.65;;;7.40;99.90;;;;;;5057305;28;20210;-74
2021/10/11 01:42:38;;;;;;;17.48;10.80;;;7.30;99.90;;;;;;5056821;28;20213;-73
2021/10/11 01:45:06;;;;;;;13.88;10.40;;;7.20;99.90;;;;;;5057221;28;20210;-74
2021/10/11 01:47:33;;;;;;;16.75;8.88;;;7.30;99.90;;;;;;5057053;28;20223;-74
2021/10/11 01:50:00;;;;;;;17.33;9.75;;;7.40;99.90;;;;;;5057005;28;20203;-74
2021/10/11 01:52:27;;;;;;;17.20;9.95;;;7.50;99.90;;;;;;5056597;28;20213;-73
2021/10/11 01:54:55;;;;;;;13.85;9.30;;;7.60;99.90;;;;;;5056907;28;20206;-74
2021/10/11 01:57:22;;;;;;;14.93;9.75;;;7.70;99.90;;;;;;5056439;28;20227;-74
2021/10/11 01:59:48;;;;;;;16.73;10.93;;;7.50;99.90;;;;;;5056703;28;20214;-74
2021/10/11 02:02:15;;;;;;;15.35;9.85;;;7.50;99.90;;;;;;5056472;28;20294;-73
2021/10/11 02:04:42;;;;;;;14.23;10.13;;;7.50;99.90;;;;;;5056766;28;20290;-73
2021/10/11 02:07:09;;;;;;;13.63;9.00;;;7.20;99.90;;;;;;5056447;28;20225;-73
2021/10/11 02:09:36;;;;;;;13.63;9.48;;;7.20;99.90;;;;;;5056691;28;20207;-73
2021/10/11 02:12:04;;;;;;;13.45;9.63;;;7.10;99.90;;;;;;5056442;28;20208;-73
2021/10/11 02:14:31;;;;;;;18.73;10.77;;;7.00;99.90;;;;;;5056528;28;20217;-74
2021/10/11 02:16:58;;;;;;;17.75;11.32;;;6.80;99.90;;;;;;5056464;28;20314;-73
2021/10/11 02:19:25;;;;;;;16.98;10.30;;;6.90;99.90;;;;;;5056592;28;20226;-73
2021/10/11 02:21:52;;;;;;;16.92;10.70;;;7.00;99.90;;;;;;5056150;28;20235;-73
2021/10/11 02:24:19;;;;;;;13.95;9.90;;;7.00;99.90;;;;;;5056217;28;20253;-74
2021/10/11 02:26:46;;;;;;;15.98;10.15;;;6.90;99.90;;;;;;5055736;28;20309;-74
2021/10/11 02:29:14;;;;;;;14.70;9.73;;;6.80;99.90;;;;;;5056121;28;20290;-73
2021/10/11 02:31:41;;;;;;;14.95;10.68;;;6.70;99.90;;;;;;5056254;28;20303;-73
2021/10/11 02:34:07;;;;;;;16.23;9.80;;;6.60;99.90;;;;;;5056292;28;20302;-73
2021/10/11 02:36:34;;;;;;;18.70;10.80;;;6.40;99.90;;;;;;5056069;28;20618;-73
2021/10/11 02:39:01;;;;;;;15.85;11.13;;;6.40;99.90;;;;;;5055958;28;20227;-74
2021/10/11 02:41:28;;;;;;;14.57;10.02;;;6.40;99.90;;;;;;5055740;28;20662;-73
2021/10/11 02:43:55;;;;;;;18.00;10.50;;;6.40;99.90;;;;;;5056046;28;20302;-74
2021/10/11 02:46:23;;;;;;;14.20;10.18;;;6.50;99.90;;;;;;5055896;28;20203;-74
2021/10/11 02:48:49;;;;;;;12.63;8.70;;;6.70;99.90;;;;;;5055971;28;20547;-74
2021/10/11 02:51:16;;;;;;;12.88;9.68;;;6.80;99.90;;;;;;5055601;28;20294;-73
2021/10/11 02:53:48;;;;;;;16.85;10.13;;;6.90;99.90;;;;;;5056516;28;20199;-74
2021/10/11 02:56:15;;;;;;;13.07;9.70;;;7.00;99.90;;;;;;5055792;28;20302;-74
2021/10/11 02:58:42;;;;;;;14.40;10.00;;;6.90;99.90;;;;;;5055697;28;20226;-74
2021/10/11 03:01:09;;;;;;;15.63;9.93;;;6.90;99.90;;;;;;5055515;28;20638;-73
2021/10/11 03:03:37;;;;;;;14.35;9.48;;;6.80;99.90;;;;;;5055603;28;20203;-74
2021/10/11 03:06:04;;;;;;;13.95;9.82;;;6.60;99.90;;;;;;5055291;28;20290;-73
2021/10/11 03:08:32;;;;;;;16.63;10.07;;;6.70;99.90;;;;;;5055540;28;20233;-73
2021/10/11 03:10:59;;;;;;;15.80;10.18;;;6.70;99.90;;;;;;5055515;28;20214;-73
2021/10/11 03:13:26;;;;;;;15.30;10.00;;;6.70;99.90;;;;;;5055313;28;20657;-74
2021/10/11 03:15:53;;;;;;;15.23;10.50;;;6.80;99.90;;;;;;5055347;28;20216;-73
2021/10/11 03:18:21;;;;;;;18.55;10.63;;;6.90;99.90;;;;;;5055211;28;20255;-73
2021/10/11 03:20:50;;;;;;;15.55;10.65;;;7.00;99.90;;;;;;5055313;28;20200;-73
2021/10/11 03:23:18;;;;;;;14.75;9.85;;;7.00;99.90;;;;;;5055139;28;20226;-73
2021/10/11 03:25:45;;;;;;;12.82;10.07;;;7.10;99.90;;;;;;5055013;28;20215;-74
2021/10/11 03:28:11;;;;;;;14.65;10.05;;;7.20;99.90;;;;;;5054852;28;20705;-74
2021/10/11 03:30:38;;;;;;;16.13;10.50;;;7.30;99.90;;;;;;5055111;28;20205;-74
2021/10/11 03:33:05;;;;;;;17.15;10.23;;;7.20;99.90;;;;;;5054809;28;20203;-73
2021/10/11 03:35:32;;;;;;;15.32;10.35;;;7.20;99.90;;;;;;5055037;28;20257;-74
2021/10/11 03:38:00;;;;;;;17.00;11.65;;;7.10;99.90;;;;;;5053831;28;20234;-73
2021/10/11 03:40:27;;;;;;;15.18;10.68;;;6.90;99.90;;;;;;5054783;28;20200;-73
2021/10/11 03:42:54;;;;;;;15.45;10.50;;;6.80;99.90;;;;;;5054955;28;20206;-73
2021/10/11 03:45:21;;;;;;;20.75;10.90;;;6.70;99.90;;;;;;5054772;28;20597;-73
2021/10/11 03:47:48;;;;;;;16.85;10.30;;;6.70;99.90;;;;;;5054770;28;20227;-73
2021/10/11 03:50:15;;;;;;;14.68;11.23;;;6.80;99.90;;;;;;5054567;28;20285;-73
2021/10/11 03:52:42;;;;;;;20.13;11.05;;;6.90;99.90;;;;;;5054765;28;20768;-73
2021/10/11 03:55:10;;;;;;;13.27;9.38;;;7.00;99.90;;;;;;5054590;28;20203;-73
2021/10/11 03:57:37;;;;;;;15.43;10.48;;;7.00;99.90;;;;;;5054454;28;20612;-74
2021/10/11 04:00:05;;;;;;;14.60;10.27;;;7.10;99.90;;;;;;5054565;28;20296;-73
2021/10/11 04:02:32;;;;;;;13.73;9.00;;;7.10;99.90;;;;;;5053906;28;20687;-73
2021/10/11 04:04:59;;;;;;;16.33;10.18;;;6.90;99.90;;;;;;5054531;28;20261;-73
2021/10/11 04:07:26;;;;;;;16.27;9.75;;;6.60;99.90;;;;;;5054220;28;20226;-73
2021/10/11 04:09:55;;;;;;;14.88;9.30;;;6.50;99.90;;;;;;5054407;28;20214;-73
2021/10/11 04:12:33;;;;;;;15.65;9.90;;;6.50;99.90;;;;;;5053973;28;20203;-73
2021/10/11 04:14:59;;;;;;;14.48;9.60;;;6.50;99.90;;;;;;5054315;28;20207;-73
2021/10/11 04:17:26;;;;;;;16.65;10.93;;;6.40;99.90;;;;;;5054222;28;20227;-73
2021/10/11 04:19:53;;;;;;;18.48;10.88;;;6.30;99.90;;;;;;5054352;28;20224;-73
2021/10/11 04:22:20;;;;;;;16.27;11.32;;;6.20;99.90;;;;;;5053836;28;20215;-73
2021/10/11 04:24:47;;;;;;;17.73;11.77;;;6.10;99.90;;;;;;5053994;28;20211;-74
2021/10/11 04:27:14;;;;;;;19.35;12.55;;;6.00;99.90;;;;;;5053950;28;20315;-73
2021/10/11 04:29:42;;;;;;;18.48;11.77;;;6.10;99.90;;;;;;5054109;28;20199;-73
2021/10/11 04:32:10;;;;;;;16.33;11.20;;;6.00;99.90;;;;;;5053905;28;20203;-72
2021/10/11 04:34:36;;;;;;;16.92;10.45;;;5.90;99.90;;;;;;5054184;28;20290;-74
2021/10/11 04:37:04;;;;;;;16.33;10.93;;;6.00;99.90;;;;;;5053775;28;20316;-73
2021/10/11 04:39:31;;;;;;;21.08;10.23;;;6.00;99.90;;;;;;5053477;28;20219;-73
2021/10/11 04:41:57;;;;;;;18.60;11.27;;;5.90;99.90;;;;;;5053723;28;20231;-72
2021/10/11 04:44:24;;;;;;;15.90;11.60;;;5.80;99.90;;;;;;5053782;28;20564;-73
2021/10/11 04:46:52;;;;;;;17.98;10.77;;;5.90;99.90;;;;;;5053496;28;20225;-73
2021/10/11 04:49:19;;;;;;;16.98;11.05;;;5.90;99.90;;;;;;5053767;28;20235;-73
2021/10/11 04:51:46;;;;;;;13.95;10.48;;;5.80;99.90;;;;;;5053443;28;20290;-73
2021/10/11 04:54:14;;;;;;;16.02;10.60;;;5.90;99.90;;;;;;5053568;28;20290;-73
2021/10/11 04:56:41;;;;;;;16.88;11.88;;;5.80;99.90;;;;;;5053575;28;20227;-73
2021/10/11 04:59:08;;;;;;;18.05;10.45;;;5.80;99.90;;;;;;5053599;28;20242;-73
2021/10/11 05:01:34;;;;;;;20.92;13.00;;;5.80;99.90;;;;;;5053357;28;20293;-73
2021/10/11 05:04:03;;;;;;;15.48;10.73;;;5.90;99.90;;;;;;5053572;28;20314;-73
2021/10/11 05:06:29;;;;;;;14.80;10.43;;;6.00;99.90;;;;;;5053492;28;20199;-73
2021/10/11 05:09:00;;;;;;;15.90;10.43;;;5.90;99.90;;;;;;5053505;28;20290;-73
2021/10/11 05:11:27;;;;;;;17.90;11.07;;;5.80;99.90;;;;;;5053096;28;20737;-73
2021/10/11 05:13:55;;;;;;;14.10;9.35;;;5.80;99.90;;;;;;5053464;28;20199;-73
2021/10/11 05:16:21;;;;;;;19.17;11.20;;;5.70;99.90;;;;;;5053336;28;20207;-73
2021/10/11 05:18:48;;;;;;;17.23;10.68;;;5.80;99.90;;;;;;5053396;28;20217;-73
2021/10/11 05:21:17;;;;;;;18.38;10.95;;;5.80;99.90;;;;;;5053092;28;20199;-73
2021/10/11 05:23:43;;;;;;;15.45;11.73;;;5.80;99.90;;;;;;5053361;28;20208;-73
2021/10/11 05:26:10;;;;;;;18.02;11.35;;;5.90;99.90;;;;;;5053352;28;20213;-73
2021/10/11 05:28:37;;;;;;;17.48;10.70;;;5.90;99.90;;;;;;5053358;28;20219;-73
2021/10/11 05:31:04;;;;;;;18.35;11.52;;;6.00;99.90;;;;;;5053144;28;20310;-73
2021/10/11 05:33:31;;;;;;;14.95;11.75;;;6.20;99.90;;;;;;5053188;28;20657;-73
2021/10/11 05:35:58;;;;;;;17.45;11.85;;;6.30;99.90;;;;;;5053246;28;20213;-73
2021/10/11 05:38:27;;;;;;;19.98;12.23;;;6.30;99.90;;;;;;5053136;28;20227;-73
2021/10/11 05:40:55;;;;;;;16.20;11.43;;;6.30;99.90;;;;;;5053253;28;20581;-73
2021/10/11 05:43:22;;;;;;;17.48;11.40;;;6.30;99.90;;;;;;5053206;28;20211;-73
2021/10/11 05:45:49;;;;;;;15.63;10.45;;;6.10;99.90;;;;;;5053191;28;20210;-73
2021/10/11 05:48:16;;;;;;;17.58;11.68;;;6.10;99.90;;;;;;5052827;28;20310;-73
2021/10/11 05:50:43;;;;;;;16.05;11.18;;;6.20;99.90;;;;;;5053103;28;20199;-73
2021/10/11 05:53:10;;;;;;;19.90;11.05;;;6.20;99.90;;;;;;5053082;28;20206;-73
2021/10/11 05:55:38;;;;;;;19.58;11.10;;;5.90;99.90;;;;;;5053041;28;20203;-73
2021/10/11 05:58:05;;;;;;;18.52;11.35;;;5.80;99.90;;;;;;5053104;28;20227;-73
2021/10/11 06:00:32;;;;;;;17.40;11.00;;;5.90;99.90;;;;;;5053171;28;20231;-74
2021/10/11 06:02:59;;;;;;;16.55;11.23;;;6.00;99.90;;;;;;5056244;28;20257;-73
2021/10/11 06:05:25;;;;;;;16.30;11.68;;;6.10;99.90;;;;;;5057056;28;20203;-74
2021/10/11 06:07:52;;;;;;;18.60;10.93;;;6.20;99.90;;;;;;5056634;28;20319;-73
2021/10/11 06:10:19;;;;;;;20.25;12.98;;;6.30;99.90;;;;;;5056763;28;20202;-74
2021/10/11 06:12:47;;;;;;;18.92;11.43;;;6.40;99.90;;;;;;5056292;28;20299;-73
2021/10/11 06:15:14;;;;;;;15.50;11.20;;;6.30;99.90;;;;;;5056505;28;20205;-74
2021/10/11 06:17:41;;;;;;;16.98;11.52;;;6.50;99.90;;;;;;5056784;28;20233;-73
2021/10/11 06:20:09;;;;;;;17.38;11.43;;;6.40;99.90;;;;;;5056413;28;20322;-73
2021/10/11 06:22:35;;;;;;;20.88;12.73;;;6.40;99.90;;;;;;5056101;28;20689;-73
2021/10/11 06:25:04;;;;;;;16.15;10.45;;;6.30;99.90;;;;;;5056262;28;20215;-73
2021/10/11 06:27:31;;;;;;;17.83;12.43;;;6.20;99.90;;;;;;5056345;28;20228;-73
2021/10/11 06:30:00;;;;;;;15.00;10.82;;;6.40;99.90;;;;;;5056286;28;20199;-73
2021/10/11 06:32:27;;;;;;;17.65;11.27;;;6.40;99.90;;;;;;5056082;28;20280;-73
2021/10/11 06:34:53;;;;;;;20.77;11.50;;;6.40;99.90;;;;;;5055932;28;20298;-74
2021/10/11 06:37:20;;;;;;;20.95;11.80;;;6.30;99.90;;;;;;5056121;28;20223;-74
2021/10/11 06:39:47;;;;;;;18.50;11.60;;;6.40;99.90;;;;;;5056135;28;20310;-73
2021/10/11 06:42:14;;;;;;;16.15;11.40;;;6.40;99.90;;;;;;5055761;28;20213;-73
2021/10/11 06:44:41;;;;;;;16.60;11.35;;;6.60;99.90;;;;;;5056004;28;20626;-73
2021/10/11 06:47:09;;;;;;;19.08;11.00;;;6.70;99.90;;;;;;5056240;28;20273;-74
2021/10/11 06:49:37;;;;;;;15.85;11.40;;;6.80;99.90;;;;;;5056063;28;20199;-74
2021/10/11 06:52:04;;;;;;;21.13;12.27;;;6.90;99.90;;;;;;5055928;28;20214;-73
2021/10/11 06:54:31;;;;;;;19.65;12.10;;;6.80;99.90;;;;;;5055836;28;20571;-74
2021/10/11 06:56:58;;;;;;;16.90;11.80;;;6.80;99.90;;;;;;5055656;28;20223;-74
2021/10/11 06:59:25;;;;;;;19.08;12.75;;;6.60;99.90;;;;;;5055696;28;20658;-74
2021/10/11 07:01:52;;;;;;;21.35;12.40;;;6.60;99.90;;;;;;5055546;28;20242;-73
2021/10/11 07:04:21;;;;;;;18.95;12.07;;;6.60;99.90;;;;;;5055751;28;20206;-74
2021/10/11 07:06:48;;;;;;;19.75;12.90;;;6.70;99.90;;;;;;5055401;28;20228;-74
2021/10/11 07:09:15;;;;;;;22.65;13.60;;;6.80;99.90;;;;;;5055550;28;20249;-73
2021/10/11 07:11:41;;;;;;;17.13;12.10;;;6.90;99.90;;;;;;5055177;28;20294;-73
2021/10/11 07:14:08;;;;;;;21.45;13.48;;;6.90;99.90;;;;;;5054395;28;20587;-74
2021/10/11 07:16:35;;;;;;;20.95;13.77;;;7.10;99.90;;;;;;5055368;28;20200;-74
2021/10/11 07:19:02;;;;;;;20.38;13.02;;;7.30;99.90;;;;;;5055352;28;20227;-74
2021/10/11 07:21:30;;;;;;;17.95;12.23;;;7.40;99.90;;;;;;5055169;28;20209;-73
2021/10/11 07:23:57;;;;;;;19.60;13.65;;;7.50;99.90;;;;;;5055122;28;20199;-74
2021/10/11 07:26:24;;;;;;;20.95;13.45;;;7.60;99.90;;;;;;5055221;28;20208;-74
2021/10/11 07:28:50;;;;;;;20.50;13.90;;;7.70;99.90;;;;;;5055304;28;20290;-74
2021/10/11 07:31:17;;;;;;;21.30;13.57;;;7.80;99.90;;;;;;5055222;28;20294;-73
2021/10/11 07:33:44;;;;;;;22.13;14.43;;;7.90;99.90;;;;;;5055119;28;20294;-74
2021/10/11 07:36:11;;;;;;;19.35;12.57;;;7.90;99.90;;;;;;5054983;28;20298;-74
2021/10/11 07:38:40;;;;;;;20.25;13.50;;;7.90;99.90;;;;;;5054954;28;20296;-74
2021/10/11 07:41:08;;;;;;;21.77;13.38;;;8.00;99.90;;;;;;5054416;28;20768;-73
2021/10/11 07:43:34;;;;;;;20.00;13.35;;;8.00;99.90;;;;;;5054877;28;20203;-74
2021/10/11 07:46:05;;;;;;;20.08;12.85;;;7.80;99.90;;;;;;5054924;28;20600;-74
2021/10/11 07:48:32;;;;;;;20.90;13.00;;;7.80;99.90;;;;;;5054864;28;20277;-74
2021/10/11 07:50:59;;;;;;;16.67;11.98;;;7.80;99.90;;;;;;5054702;28;20290;-74
2021/10/11 07:53:26;;;;;;;21.77;14.23;;;7.70;99.90;;;;;;5054671;28;20229;-73
2021/10/11 07:55:55;;;;;;;22.52;14.43;;;7.70;99.90;;;;;;5054702;28;20298;-73
2021/10/11 07:58:22;;;;;;;22.30;13.65;;;7.80;99.90;;;;;;5054623;28;20231;-74
2021/10/11 08:00:48;;;;;;;23.23;14.45;;;7.80;99.90;;;;;;5054524;28;20314;-74
2021/10/11 08:03:15;;;;;;;19.35;13.20;;;7.80;99.90;;;;;;5054495;28;20218;-73
2021/10/11 08:05:42;;;;;;;19.83;12.85;;;7.80;99.90;;;;;;5054453;28;20203;-73
2021/10/11 08:08:09;;;;;;;20.38;12.73;;;7.90;99.90;;;;;;5054120;28;20798;-74
2021/10/11 08:10:36;;;;;;;20.10;13.10;;;8.00;99.90;;;;;;5054396;28;20200;-74
2021/10/11 08:13:04;;;;;;;17.77;13.70;;;8.10;99.90;;;;;;5054185;28;20302;-73
2021/10/11 08:15:31;;;;;;;21.17;13.32;;;8.00;99.90;;;;;;5054324;28;20199;-74
2021/10/11 08:17:58;;;;;;;19.17;13.20;;;8.00;99.90;;;;;;5054157;28;20280;-73
2021/10/11 08:20:25;;;;;;;18.77;12.60;;;8.10;99.90;;;;;;5054127;28;20634;-74
2021/10/11 08:22:53;;;;;;;23.45;14.80;;;8.20;99.90;;;;;;5053992;28;20214;-73
2021/10/11 08:25:20;;;;;;;23.05;14.00;;;8.30;99.90;;;;;;5053660;28;20211;-74
2021/10/11 08:27:47;;;;;;;19.63;12.23;;;8.40;99.90;;;;;;5053768;28;20223;-74
2021/10/11 08:30:15;;;;;;;21.08;13.70;;;8.40;99.90;;;;;;5054066;28;20291;-74
2021/10/11 08:32:42;;;;;;;18.20;13.20;;;8.40;99.90;;;;;;5053716;28;20551;-73
2021/10/11 08:35:09;;;;;;;21.20;14.80;;;8.50;99.90;;;;;;5054001;28;20199;-73
2021/10/11 08:37:36;;;;;;;18.77;13.65;;;8.60;99.90;;;;;;5054301;28;20230;-74
2021/10/11 08:40:06;;;;;;;26.27;14.43;;;8.70;99.90;;;;;;5053792;28;20310;-74
2021/10/11 08:42:33;;;;;;;26.30;15.00;;;8.90;99.90;;;;;;5053977;28;20209;-73
2021/10/11 08:44:59;;;;;;;23.23;15.30;;;8.90;99.90;;;;;;5054289;28;20295;-74
2021/10/11 08:47:28;;;;;;;25.70;16.17;;;9.10;99.90;;;;;;5054652;28;20313;-73
2021/10/11 08:49:55;;;;;;;19.25;14.65;;;9.30;99.90;;;;;;5054744;28;20236;-74
2021/10/11 08:52:22;;;;;;;23.27;15.50;;;9.40;99.90;;;;;;5054055;28;20294;-73
2021/10/11 08:54:50;;;;;;;25.38;15.80;;;9.40;99.90;;;;;;5054435;28;20214;-74
2021/10/11 08:57:24;;;;;;;22.48;15.57;;;9.40;99.90;;;;;;5054430;28;20219;-73
2021/10/11 08:59:52;;;;;;;26.25;15.98;;;9.50;99.90;;;;;;5054513;28;20247;-74
2021/10/11 09:02:21;;;;;;;24.90;14.73;;;9.60;99.90;;;;;;5054094;28;20203;-73
2021/10/11 09:04:53;;;;;;;20.02;14.68;;;9.70;99.90;;;;;;5054501;28;20256;-73
2021/10/11 09:07:24;;;;;;;23.15;14.98;;;9.80;99.90;;;;;;5054933;28;20223;-74
2021/10/11 09:09:52;;;;;;;24.13;13.23;;;10.10;99.90;;;;;;5054758;28;20187;-74
2021/10/11 09:12:21;;;;;;;18.02;14.02;;;10.30;99.90;;;;;;5053745;28;20203;-73
2021/10/11 09:14:52;;;;;;;24.73;14.90;;;10.40;99.90;;;;;;5053917;28;20210;-74
2021/10/11 09:17:28;;;;;;;20.35;13.95;;;10.60;99.90;;;;;;5053812;28;20235;-74
2021/10/11 09:19:59;;;;;;;18.08;12.32;;;10.70;99.90;;;;;;5053784;28;20227;-74
2021/10/11 09:22:34;;;;;;;21.25;12.75;;;10.90;99.90;;;;;;5053509;28;20214;-73
2021/10/11 09:25:02;;;;;;;19.67;14.38;;;11.00;99.90;;;;;;5053926;28;20214;-74
2021/10/11 09:27:29;;;;;;;18.75;12.88;;;10.90;99.90;;;;;;5053941;28;20314;-74
2021/10/11 09:29:55;;;;;;;19.80;12.45;;;11.00;99.90;;;;;;5053580;28;20569;-74
2021/10/11 09:32:31;;;;;;;20.58;12.90;;;11.10;99.90;;;;;;5054132;28;20293;-73
2021/10/11 09:35:13;;;;;;;16.70;12.32;;;11.00;99.90;;;;;;5054525;28;20203;-74
2021/10/11 09:37:40;;;;;;;23.05;12.30;;;11.00;99.90;;;;;;5057080;28;20314;-74
2021/10/11 09:40:09;;;;;;;16.65;12.60;;;11.10;99.90;;;;;;5057043;28;20318;-74
2021/10/11 09:42:36;;;;;;;18.30;13.27;;;11.10;99.90;;;;;;5057205;28;20692;-74
2021/10/11 09:45:06;;;;;;;20.05;13.40;;;11.20;99.90;;;;;;5057607;28;20199;-74
2021/10/11 09:47:34;;;;;;;19.00;12.38;;;11.30;99.90;;;;;;5057786;28;20697;-74
2021/10/11 09:50:04;;;;;;;19.50;12.70;;;11.30;99.90;;;;;;5057064;28;20218;-74
2021/10/11 09:52:33;;;;;;;18.05;11.85;;;11.20;99.90;;;;;;5057567;28;20199;-73
2021/10/11 09:55:00;;;;;;;19.13;12.60;;;11.30;99.90;;;;;;5057282;28;20210;-74
2021/10/11 09:57:27;;;;;;;20.75;12.60;;;11.30;99.90;;;;;;5057333;28;20310;-74
2021/10/11 09:59:54;;;;;;;23.17;11.52;;;11.20;99.90;;;;;;5057349;28;20223;-74
2021/10/11 10:02:26;;;;;;;17.95;12.15;;;11.30;99.90;;;;;;5056573;28;20757;-74
2021/10/11 10:04:56;;;;;;;20.65;14.38;;;11.40;99.90;;;;;;5056855;28;20214;-74
2021/10/11 10:07:25;;;;;;;19.90;11.98;;;11.50;99.90;;;;;;5057268;28;20233;-74
2021/10/11 10:09:55;;;;;;;18.52;12.88;;;11.40;99.90;;;;;;5057024;28;20225;-74
2021/10/11 10:12:22;;;;;;;20.27;12.32;;;11.40;99.90;;;;;;5057289;28;20298;-74
2021/10/11 10:14:59;;;;;;;19.08;12.18;;;11.40;99.90;;;;;;5056599;28;20294;-74
2021/10/11 10:17:30;;;;;;;15.75;11.57;;;11.60;99.90;;;;;;5057351;28;20226;-74
2021/10/11 10:20:08;;;;;;;16.67;12.13;;;11.70;99.90;;;;;;5056777;28;20760;-74
2021/10/11 10:22:35;;;;;;;18.80;12.00;;;11.80;99.90;;;;;;5056450;28;20211;-74
2021/10/11 10:25:11;;;;;;;18.35;12.85;;;11.90;99.90;;;;;;5056183;28;20211;-74
2021/10/11 10:27:41;;;;;;;20.45;13.18;;;12.00;99.90;;;;;;5056291;28;20701;-74
2021/10/11 10:30:18;;;;;;;15.52;12.18;;;12.00;99.90;;;;;;5056426;28;20284;-74
2021/10/11 10:32:57;;;;;;;17.50;12.07;;;12.10;99.90;;;;;;5056104;28;20203;-73
2021/10/11 10:35:25;;;;;;;18.08;12.32;;;12.10;99.90;;;;;;5056188;28;20666;-74
2021/10/11 10:37:52;;;;;;;15.63;11.50;;;12.10;99.90;;;;;;5055885;28;20314;-74
2021/10/11 10:40:25;;;;;;;17.02;11.77;;;12.20;99.90;;;;;;5056090;28;20231;-74
2021/10/11 10:42:51;;;;;;;18.85;11.85;;;12.20;99.90;;;;;;5055975;28;20204;-74
2021/10/11 10:45:22;;;;;;;16.15;11.45;;;12.10;99.90;;;;;;5055893;28;20763;-74
2021/10/11 10:47:51;;;;;;;20.70;13.35;;;12.20;99.90;;;;;;5055645;28;20227;-74
2021/10/11 10:50:19;;;;;;;19.25;12.88;;;12.20;99.90;;;;;;5055891;28;20290;-74
2021/10/11 10:52:50;;;;;;;15.63;10.73;;;12.30;99.90;;;;;;5055663;28;20208;-73
2021/10/11 10:55:17;;;;;;;19.83;13.00;;;12.40;99.90;;;;;;5055877;28;20290;-74
2021/10/11 10:57:45;;;;;;;16.15;11.50;;;12.60;99.90;;;;;;5055771;28;20826;-74
2021/10/11 11:00:17;;;;;;;19.92;12.68;;;12.80;99.90;;;;;;5055922;28;20223;-74
2021/10/11 11:02:46;;;;;;;19.60;12.75;;;12.90;99.90;;;;;;5055662;28;20235;-73
2021/10/11 11:05:14;;;;;;;16.63;12.18;;;13.10;99.90;;;;;;5055835;28;20307;-74
2021/10/11 11:07:42;;;;;;;18.90;12.60;;;13.20;99.90;;;;;;5055877;28;20224;-73
2021/10/11 11:10:12;;;;;;;18.15;12.68;;;13.30;99.90;;;;;;5055556;28;20238;-74
2021/10/11 11:12:41;;;;;;;16.48;12.55;;;13.30;99.90;;;;;;5055746;28;20280;-74
2021/10/11 11:15:11;;;;;;;18.10;12.63;;;13.50;99.90;;;;;;5055709;28;20210;-74
2021/10/11 11:17:41;;;;;;;18.25;13.13;;;13.60;99.90;;;;;;5056602;28;20232;-74
2021/10/11 11:20:20;;;;;;;23.42;14.60;;;13.80;99.90;;;;;;5055541;28;20204;-75
2021/10/11 11:22:48;;;;;;;19.17;13.35;;;13.80;99.90;;;;;;5055710;28;20207;-74
2021/10/11 11:25:15;;;;;;;21.15;12.93;;;14.00;99.90;;;;;;5055799;28;20224;-74
2021/10/11 11:27:45;;;;;;;17.85;13.00;;;14.10;99.90;;;;;;5056798;28;20312;-74
2021/10/11 11:30:15;;;;;;;18.48;12.52;;;14.10;99.90;;;;;;5056236;28;20209;-74
2021/10/11 11:32:49;;;;;;;18.75;13.40;;;14.30;99.90;;;;;;5055358;28;20205;-73
2021/10/11 11:35:25;;;;;;;17.40;12.38;;;14.30;99.90;;;;;;5055268;28;20208;-74
2021/10/11 11:37:53;;;;;;;17.48;13.43;;;14.40;99.90;;;;;;5055205;28;20221;-74
2021/10/11 11:40:22;;;;;;;18.05;11.48;;;14.30;99.90;;;;;;5055242;28;20240;-74
2021/10/11 11:42:50;;;;;;;15.15;11.70;;;14.20;99.90;;;;;;5055055;28;20231;-74
2021/10/11 11:45:20;;;;;;;14.05;11.25;;;14.40;99.90;;;;;;5055102;28;20206;-74
2021/10/11 11:47:48;;;;;;;15.63;10.43;;;14.20;98.60;;;;;;5054702;28;20727;-74
2021/10/11 11:50:23;;;;;;;15.35;11.00;;;14.10;99.90;;;;;;5054970;28;20206;-74
2021/10/11 11:53:00;;;;;;;17.75;12.35;;;14.30;99.90;;;;;;5054725;28;20212;-74
2021/10/11 11:55:28;;;;;;;16.52;11.27;;;14.40;99.90;;;;;;5055136;28;20205;-74
2021/10/11 11:57:56;;;;;;;16.70;11.90;;;14.60;99.90;;;;;;5054830;28;20584;-74
2021/10/11 12:00:30;;;;;;;16.48;10.98;;;14.50;99.90;;;;;;5053924;28;20686;-74
2021/10/11 12:02:57;;;;;;;16.75;11.80;;;14.30;99.70;;;;;;5054596;28;20236;-74
2021/10/11 12:05:24;;;;;;;16.05;10.75;;;14.40;99.90;;;;;;5054568;28;20209;-74
2021/10/11 12:07:52;;;;;;;13.73;10.93;;;14.70;99.90;;;;;;5054760;28;20226;-74
2021/10/11 12:10:22;;;;;;;17.50;11.10;;;14.70;99.20;;;;;;5055234;28;20210;-74
2021/10/11 12:12:56;;;;;;;18.27;11.70;;;15.00;98.90;;;;;;5054375;28;20549;-74
2021/10/11 12:15:25;;;;;;;16.60;11.38;;;15.30;98.00;;;;;;5054403;28;20213;-74
2021/10/11 12:18:02;;;;;;;14.50;9.57;;;15.60;96.80;;;;;;5054254;28;20657;-74
2021/10/11 12:20:40;;;;;;;15.07;11.50;;;15.80;97.30;;;;;;5054020;28;20212;-74
2021/10/11 12:23:07;;;;;;;17.05;12.20;;;15.70;96.20;;;;;;5054034;28;20298;-74
2021/10/11 12:25:34;;;;;;;14.68;10.93;;;15.40;95.60;;;;;;5054234;28;20305;-74
2021/10/11 12:28:09;;;;;;;16.33;11.18;;;15.20;96.70;;;;;;5054404;28;20626;-74
2021/10/11 12:30:38;;;;;;;17.23;12.23;;;15.40;97.70;;;;;;5054223;28;20193;-74
2021/10/11 12:33:12;;;;;;;15.10;11.07;;;15.30;96.20;;;;;;5053838;28;20618;-74
2021/10/11 12:35:40;;;;;;;15.35;11.18;;;15.30;97.70;;;;;;5054033;28;20210;-74
2021/10/11 12:38:08;;;;;;;15.90;11.93;;;15.20;97.60;;;;;;5054183;28;20656;-74
2021/10/11 12:40:35;;;;;;;15.38;10.13;;;15.10;98.10;;;;;;5053897;28;20210;-74